Broad Arrow, Australia
Current Conditions -  °F | °C
As of 5:00 PM on Wednesday 28 Jan 2015 (Local Time) from YPKG Reporting Station
Clear Clear  
Wind Chill: 93°   Ceiling: Unl
Heat Index: 93°   Visibility: 6mi
Dew Point: 19°   Wind: 15mph
Humidity: 7%   Direction: 110°ESE
Pressure: 29.8"   Gusts: NA
Location:  30.44°S, 121.31°E
Report Text: YPKG 280900Z AUTO 11013KT 9999 // NCD 34/M07 Q1009
Loading
Personal Weather Stations






























Interactive Weather Map New forecast layout! Learn more

10-Day Weather Forecast

Advertisements
Track Severe Weather on mobile